PRINT OUT SECTION, show ยป

TAF EPSY 161430Z 1615/1624 34008KT CAVOK=

TAF EPSY 161730Z 1618/1703 34005KT CAVOK=

TAF EPZG 161430Z 1615/1624 VRB02KT CAVOK
BECMG 1616/1619 09010KT=

TAF EPZG 161730Z 1618/1703 VRB02KT CAVOK
BECMG 1618/1620 09010KT=

TAF EPZG 302300Z NIL=